createdAt,value
2023-03-30T00:00:57.814Z,35.93
2023-03-30T00:03:27.715Z,35.75
2023-03-30T00:05:57.004Z,35.81
2023-03-30T00:08:28.530Z,36.19
2023-03-30T00:10:56.618Z,35.77
2023-03-30T00:13:24.369Z,35.79
2023-03-30T00:15:52.216Z,35.94
2023-03-30T00:18:20.151Z,35.74
2023-03-30T00:20:47.973Z,35.92
2023-03-30T00:23:15.724Z,35.60
2023-03-30T00:25:43.656Z,35.72
2023-03-30T00:28:11.422Z,35.96
2023-03-30T00:30:39.441Z,36.07
2023-03-30T00:33:07.279Z,35.93
2023-03-30T00:35:35.492Z,35.71
2023-03-30T00:38:03.456Z,36.16
2023-03-30T00:40:31.363Z,35.85
2023-03-30T00:42:59.449Z,35.91
2023-03-30T00:45:27.780Z,35.96
2023-03-30T00:47:57.807Z,35.86
2023-03-30T00:50:25.645Z,35.91
2023-03-30T00:52:53.450Z,36.14
2023-03-30T00:55:21.527Z,35.94
2023-03-30T00:57:49.465Z,36.17
2023-03-30T01:00:17.347Z,36.01
2023-03-30T01:02:46.198Z,36.08
2023-03-30T01:05:14.184Z,35.85
2023-03-30T01:07:41.992Z,36.21
2023-03-30T01:10:09.762Z,36.20
2023-03-30T01:12:37.577Z,35.73
2023-03-30T01:15:05.614Z,35.84
2023-03-30T01:17:33.438Z,36.05
2023-03-30T01:20:03.140Z,35.79
2023-03-30T01:22:34.775Z,36.23
2023-03-30T01:25:03.066Z,36.13
2023-03-30T01:27:30.848Z,35.99
2023-03-30T01:29:58.648Z,35.98
2023-03-30T01:32:26.460Z,35.86
2023-03-30T01:34:54.383Z,36.06
2023-03-30T01:37:22.303Z,35.82
2023-03-30T01:39:50.087Z,36.24
2023-03-30T01:42:18.161Z,36.03
2023-03-30T01:44:46.014Z,36.27
2023-03-30T01:47:14.648Z,35.96
2023-03-30T01:49:43.238Z,35.98
2023-03-30T01:52:11.052Z,35.96
2023-03-30T01:54:41.650Z,36.02
2023-03-30T01:57:09.522Z,35.90
2023-03-30T01:59:37.344Z,36.22
2023-03-30T02:02:07.178Z,36.02
2023-03-30T02:04:36.217Z,36.22
2023-03-30T02:07:04.145Z,36.21
2023-03-30T02:09:31.917Z,36.21
2023-03-30T02:11:59.813Z,36.29
2023-03-30T02:14:27.593Z,36.15
2023-03-30T02:16:55.400Z,36.28
2023-03-30T02:19:23.245Z,36.03
2023-03-30T02:21:51.231Z,35.91
2023-03-30T02:24:19.821Z,36.11
2023-03-30T02:26:48.212Z,36.00
2023-03-30T02:29:18.931Z,36.21
2023-03-30T02:31:49.685Z,36.29
2023-03-30T02:34:19.610Z,36.19
2023-03-30T02:36:47.554Z,36.41
2023-03-30T02:39:15.973Z,36.24
2023-03-30T02:41:43.784Z,36.09
2023-03-30T02:44:11.637Z,36.03
2023-03-30T02:46:39.468Z,36.14
2023-03-30T02:49:07.624Z,36.24
2023-03-30T02:51:35.427Z,35.80
2023-03-30T02:54:03.424Z,36.48
2023-03-30T02:56:31.168Z,36.20
2023-03-30T02:58:59.003Z,36.41
2023-03-30T03:01:26.917Z,36.09
2023-03-30T03:03:58.272Z,36.00
2023-03-30T03:06:26.054Z,36.20
2023-03-30T03:08:53.897Z,36.29
2023-03-30T03:11:21.773Z,35.99
2023-03-30T03:13:49.872Z,36.29
2023-03-30T03:16:20.651Z,36.25
2023-03-30T03:18:49.703Z,36.38
2023-03-30T03:21:17.533Z,36.04
2023-03-30T03:23:48.373Z,36.28
2023-03-30T03:26:16.288Z,36.31
2023-03-30T03:28:44.983Z,36.50
2023-03-30T03:31:13.491Z,36.21
2023-03-30T03:33:41.337Z,36.09
2023-03-30T03:36:09.163Z,36.15
2023-03-30T03:38:36.988Z,36.42
2023-03-30T03:41:05.095Z,36.31
2023-03-30T03:43:33.420Z,36.33
2023-03-30T03:46:01.319Z,36.28
2023-03-30T03:48:29.204Z,36.21
2023-03-30T03:50:57.118Z,36.45
2023-03-30T03:53:24.933Z,36.19
2023-03-30T03:55:52.789Z,36.17
2023-03-30T03:58:20.753Z,36.42
2023-03-30T04:00:48.916Z,36.10
2023-03-30T04:03:17.034Z,36.15
2023-03-30T04:05:44.876Z,36.25
2023-03-30T04:08:12.664Z,36.02
2023-03-30T04:10:40.819Z,36.02
2023-03-30T04:13:08.622Z,36.04
2023-03-30T04:15:36.485Z,36.10
2023-03-30T04:18:05.290Z,36.08
2023-03-30T04:20:33.279Z,36.13
2023-03-30T04:23:02.204Z,36.21
2023-03-30T04:25:30.104Z,36.13
2023-03-30T04:27:57.903Z,36.27
2023-03-30T04:30:25.709Z,36.06
2023-03-30T04:33:02.830Z,36.25
2023-03-30T04:35:31.055Z,36.39
2023-03-30T04:38:00.158Z,36.36
2023-03-30T04:40:30.412Z,36.61
2023-03-30T04:43:02.318Z,36.66
2023-03-30T04:45:30.373Z,36.54
2023-03-30T04:47:58.202Z,36.34
2023-03-30T04:50:26.147Z,36.38
2023-03-30T04:52:53.942Z,36.27
2023-03-30T04:55:21.741Z,36.26
2023-03-30T04:57:49.536Z,36.63
2023-03-30T05:00:17.614Z,36.75
2023-03-30T05:02:45.707Z,36.30
2023-03-30T05:05:13.593Z,36.24
2023-03-30T05:07:41.411Z,36.54
2023-03-30T05:10:09.193Z,36.28
2023-03-30T05:12:36.984Z,36.30
2023-03-30T05:15:04.762Z,36.44
2023-03-30T05:17:32.587Z,36.53
2023-03-30T05:20:00.589Z,36.12
2023-03-30T05:22:28.364Z,36.22
2023-03-30T05:24:56.106Z,35.86
2023-03-30T05:27:23.929Z,36.42
2023-03-30T05:29:51.736Z,36.23
2023-03-30T05:32:19.503Z,36.34
2023-03-30T05:34:48.057Z,36.35
2023-03-30T05:37:15.956Z,36.25
2023-03-30T05:39:43.728Z,36.25
2023-03-30T05:42:11.578Z,36.27
2023-03-30T05:44:39.475Z,36.44
2023-03-30T05:47:07.326Z,36.49
2023-03-30T05:49:35.210Z,36.49
2023-03-30T05:52:05.777Z,36.25
2023-03-30T05:54:33.539Z,36.36
2023-03-30T05:57:01.450Z,36.00
2023-03-30T05:59:29.265Z,36.31
2023-03-30T06:01:57.317Z,36.15
2023-03-30T06:04:26.806Z,36.05
2023-03-30T06:06:54.669Z,36.24
2023-03-30T06:09:24.116Z,36.00
2023-03-30T06:11:51.953Z,36.09
2023-03-30T06:14:19.692Z,36.10
2023-03-30T06:16:47.557Z,36.34
2023-03-30T06:19:15.373Z,36.30
2023-03-30T06:21:43.375Z,36.25
2023-03-30T06:24:11.228Z,36.10
2023-03-30T06:26:39.022Z,35.85
2023-03-30T06:29:06.888Z,35.84
2023-03-30T06:31:35.178Z,35.84
2023-03-30T06:34:03.356Z,35.88
2023-03-30T06:36:44.666Z,35.88
2023-03-30T06:39:13.565Z,35.68
2023-03-30T06:41:41.775Z,36.02
2023-03-30T06:44:10.433Z,36.11
2023-03-30T06:46:38.291Z,35.99
2023-03-30T06:49:06.086Z,36.10
2023-03-30T06:51:35.419Z,35.98
2023-03-30T06:54:03.191Z,35.70
2023-03-30T06:56:31.437Z,35.82
2023-03-30T06:58:59.221Z,35.61
2023-03-30T07:01:26.988Z,35.76
2023-03-30T07:03:54.828Z,35.80
2023-03-30T07:06:22.811Z,35.92
2023-03-30T07:08:50.640Z,35.60
2023-03-30T07:11:18.566Z,35.63
2023-03-30T07:13:46.363Z,35.35
2023-03-30T07:16:14.261Z,35.47
2023-03-30T07:18:42.143Z,35.31
2023-03-30T07:21:09.907Z,35.36
2023-03-30T07:23:37.684Z,35.52
2023-03-30T07:26:05.510Z,35.02
2023-03-30T07:28:33.358Z,35.12
2023-03-30T07:31:01.680Z,35.14
2023-03-30T07:33:29.949Z,35.20
2023-03-30T07:35:57.977Z,35.01
2023-03-30T07:38:25.938Z,34.98
2023-03-30T07:40:53.770Z,34.81
2023-03-30T07:43:21.846Z,35.21
2023-03-30T07:45:49.654Z,35.19
2023-03-30T07:48:17.524Z,35.09
2023-03-30T07:50:45.394Z,35.01
2023-03-30T07:53:13.764Z,34.86
2023-03-30T07:55:41.591Z,34.81
2023-03-30T07:58:09.420Z,34.73
2023-03-30T08:00:37.385Z,34.63
2023-03-30T08:03:05.397Z,34.65
2023-03-30T08:05:33.220Z,34.91
2023-03-30T08:08:01.184Z,34.86
2023-03-30T08:10:29.091Z,34.76
2023-03-30T08:12:56.906Z,34.48
2023-03-30T08:15:24.791Z,34.68
2023-03-30T08:17:52.614Z,34.92
2023-03-30T08:20:20.560Z,34.63
2023-03-30T08:22:48.309Z,34.64
2023-03-30T08:25:16.109Z,34.98
2023-03-30T08:27:44.021Z,34.80
2023-03-30T08:30:13.301Z,34.86
2023-03-30T08:32:41.210Z,34.88
2023-03-30T08:35:09.031Z,34.71
2023-03-30T08:37:36.869Z,35.05
2023-03-30T08:40:08.027Z,34.79
2023-03-30T08:42:35.849Z,34.92
2023-03-30T08:45:05.641Z,34.73
2023-03-30T08:47:33.634Z,34.79
2023-03-30T08:50:01.854Z,34.88
2023-03-30T08:52:29.678Z,34.90
2023-03-30T08:54:58.062Z,34.67
2023-03-30T08:57:26.411Z,34.95
2023-03-30T08:59:54.237Z,34.78
2023-03-30T09:02:22.056Z,35.00
2023-03-30T09:04:54.965Z,35.01
2023-03-30T09:07:23.545Z,35.00
2023-03-30T09:09:52.113Z,34.80
2023-03-30T09:12:20.016Z,34.74
2023-03-30T09:14:48.227Z,34.87
2023-03-30T09:17:16.898Z,34.67
2023-03-30T09:19:44.745Z,34.56
2023-03-30T09:22:12.557Z,34.63
2023-03-30T09:24:40.974Z,34.79
2023-03-30T09:27:09.289Z,34.73
2023-03-30T09:29:39.238Z,34.83
2023-03-30T09:32:07.887Z,34.65
2023-03-30T09:34:35.741Z,34.87
2023-03-30T09:37:03.529Z,34.40
2023-03-30T09:39:33.505Z,34.79
2023-03-30T09:42:01.996Z,34.77
2023-03-30T09:44:29.760Z,34.81
2023-03-30T09:46:57.585Z,34.58
2023-03-30T09:49:25.420Z,34.53
2023-03-30T09:51:53.382Z,34.58
2023-03-30T09:54:21.134Z,34.58
2023-03-30T09:56:51.540Z,34.53
2023-03-30T09:59:19.402Z,34.82
2023-03-30T10:01:47.244Z,34.42
2023-03-30T10:04:16.502Z,34.70
2023-03-30T10:06:44.496Z,34.68
2023-03-30T10:09:12.413Z,34.51
2023-03-30T10:11:40.210Z,34.32
2023-03-30T10:14:08.086Z,34.27
2023-03-30T10:16:35.915Z,34.16
2023-03-30T10:19:03.744Z,34.13
2023-03-30T10:21:31.552Z,34.16
2023-03-30T10:23:59.600Z,34.16
2023-03-30T10:26:28.386Z,34.28
2023-03-30T10:28:56.920Z,34.10
2023-03-30T10:31:26.397Z,34.31
2023-03-30T10:33:55.614Z,34.08
2023-03-30T10:36:23.407Z,34.21
2023-03-30T10:38:51.516Z,34.22
2023-03-30T10:41:20.576Z,33.96
2023-03-30T10:43:48.785Z,33.81
2023-03-30T10:46:20.478Z,33.99
2023-03-30T10:48:48.654Z,33.81
2023-03-30T10:51:17.986Z,34.01
2023-03-30T10:53:45.802Z,34.21
2023-03-30T10:56:13.601Z,34.48
2023-03-30T10:58:43.311Z,34.43
2023-03-30T11:01:11.145Z,34.13
2023-03-30T11:03:39.094Z,34.29
2023-03-30T11:06:07.144Z,34.33
2023-03-30T11:08:35.809Z,34.35
2023-03-30T11:11:03.713Z,34.15
2023-03-30T11:13:31.616Z,34.27
2023-03-30T11:15:59.412Z,34.13
2023-03-30T11:18:27.252Z,34.04
2023-03-30T11:20:55.073Z,34.25
2023-03-30T11:23:22.885Z,34.16
2023-03-30T11:25:50.794Z,34.01
2023-03-30T11:28:18.636Z,34.28
2023-03-30T11:30:46.396Z,34.28
2023-03-30T11:33:14.241Z,34.04
2023-03-30T11:35:42.098Z,34.26
2023-03-30T11:38:09.996Z,34.10
2023-03-30T11:40:37.746Z,34.04
2023-03-30T11:43:05.511Z,34.68
2023-03-30T11:45:33.275Z,34.32
2023-03-30T11:48:01.631Z,34.07
2023-03-30T11:50:29.955Z,33.93
2023-03-30T11:52:58.112Z,34.31
2023-03-30T11:55:25.900Z,34.14
2023-03-30T11:57:53.747Z,34.34
2023-03-30T12:00:21.506Z,34.43
2023-03-30T12:02:49.458Z,34.10
2023-03-30T12:05:17.320Z,34.07
2023-03-30T12:07:45.113Z,34.21
2023-03-30T12:10:12.915Z,34.22
2023-03-30T12:12:40.719Z,34.24
2023-03-30T12:15:08.693Z,34.42
2023-03-30T12:17:36.565Z,34.14
2023-03-30T12:20:04.437Z,34.31
2023-03-30T12:22:32.265Z,34.17
2023-03-30T12:25:00.163Z,34.24
2023-03-30T12:27:29.095Z,34.22
2023-03-30T12:30:03.064Z,34.56
2023-03-30T12:32:31.501Z,34.23
2023-03-30T12:34:59.422Z,34.25
2023-03-30T12:37:28.527Z,34.40
2023-03-30T12:39:57.703Z,34.43
2023-03-30T12:42:34.748Z,34.21
2023-03-30T12:45:03.051Z,34.47
2023-03-30T12:47:32.943Z,34.83
2023-03-30T12:50:00.912Z,34.58
2023-03-30T12:52:28.806Z,34.85
2023-03-30T12:54:56.574Z,34.27
2023-03-30T12:57:24.795Z,34.39
2023-03-30T12:59:52.920Z,34.29
2023-03-30T13:02:20.851Z,34.63
2023-03-30T13:04:49.074Z,34.35
2023-03-30T13:07:17.049Z,34.32
2023-03-30T13:09:44.913Z,34.42
2023-03-30T13:12:12.701Z,34.68
2023-03-30T13:14:40.614Z,34.36
2023-03-30T13:17:08.549Z,34.40
2023-03-30T13:19:37.312Z,34.16
2023-03-30T13:22:05.131Z,34.08
2023-03-30T13:24:32.976Z,34.07
2023-03-30T13:27:00.903Z,34.38
2023-03-30T13:29:30.910Z,34.12
2023-03-30T13:31:58.879Z,33.96
2023-03-30T13:34:26.642Z,34.27
2023-03-30T13:36:54.439Z,34.15
2023-03-30T13:39:22.792Z,34.35
2023-03-30T13:41:50.818Z,34.39
2023-03-30T13:44:18.645Z,34.62
2023-03-30T13:46:46.508Z,34.69
2023-03-30T13:49:14.336Z,35.03
2023-03-30T13:51:42.561Z,34.49
2023-03-30T13:54:10.368Z,34.58
2023-03-30T13:56:38.236Z,33.94
2023-03-30T13:59:06.553Z,34.06
2023-03-30T14:01:34.346Z,34.11
2023-03-30T14:04:03.848Z,33.85
2023-03-30T14:06:31.905Z,33.58
2023-03-30T14:08:59.690Z,33.52
2023-03-30T14:11:27.662Z,33.38
2023-03-30T14:13:55.470Z,33.54
2023-03-30T14:16:23.336Z,33.09
2023-03-30T14:18:51.114Z,33.22
2023-03-30T14:21:18.947Z,33.61
2023-03-30T14:23:46.724Z,33.35
2023-03-30T14:26:14.494Z,33.18
2023-03-30T14:28:42.702Z,33.93
2023-03-30T14:31:10.911Z,33.81
2023-03-30T14:33:39.803Z,34.28
2023-03-30T14:36:08.927Z,34.44
2023-03-30T14:38:38.489Z,34.47
2023-03-30T14:41:06.976Z,34.52
2023-03-30T14:43:35.073Z,34.45
2023-03-30T14:46:03.068Z,34.52
2023-03-30T14:48:31.125Z,34.46
2023-03-30T14:50:58.942Z,34.83
2023-03-30T14:53:26.821Z,34.76
2023-03-30T14:55:57.114Z,34.95
2023-03-30T14:58:24.866Z,35.23
2023-03-30T15:00:52.846Z,34.93
2023-03-30T15:03:32.951Z,35.01
2023-03-30T15:06:02.207Z,35.20
2023-03-30T15:08:30.022Z,34.86
2023-03-30T15:10:57.961Z,34.29
2023-03-30T15:13:25.705Z,34.72
2023-03-30T15:15:54.472Z,34.48
2023-03-30T15:18:22.268Z,34.46
2023-03-30T15:20:50.130Z,34.52
2023-03-30T15:23:17.925Z,33.85
2023-03-30T15:25:45.766Z,34.10
2023-03-30T15:28:13.538Z,34.14
2023-03-30T15:30:41.305Z,34.08
2023-03-30T15:33:09.155Z,34.19
2023-03-30T15:35:37.081Z,34.10
2023-03-30T15:38:04.934Z,34.21
2023-03-30T15:40:32.740Z,34.22
2023-03-30T15:43:00.513Z,34.20
2023-03-30T15:45:28.281Z,34.42
2023-03-30T15:47:56.181Z,34.50
2023-03-30T15:50:24.029Z,34.66
2023-03-30T15:52:51.827Z,34.89
2023-03-30T15:55:19.638Z,34.65
2023-03-30T15:57:47.672Z,34.66
2023-03-30T16:00:15.458Z,34.80
2023-03-30T16:02:43.314Z,35.07
2023-03-30T16:05:11.519Z,34.79
2023-03-30T16:07:41.989Z,35.23
2023-03-30T16:10:10.002Z,35.08
2023-03-30T16:12:38.309Z,35.17
2023-03-30T16:15:07.182Z,35.05
2023-03-30T16:17:36.214Z,35.17
2023-03-30T16:20:05.985Z,35.37
2023-03-30T16:22:34.150Z,35.09
2023-03-30T16:25:01.999Z,35.43
2023-03-30T16:27:29.965Z,35.60
2023-03-30T16:29:57.757Z,35.41
2023-03-30T16:32:29.879Z,35.44
2023-03-30T16:35:02.598Z,35.57
2023-03-30T16:37:30.393Z,35.81
2023-03-30T16:39:58.298Z,35.37
2023-03-30T16:42:27.479Z,35.30
2023-03-30T16:44:55.345Z,35.22
2023-03-30T16:47:23.186Z,34.71
2023-03-30T16:49:51.877Z,34.55
2023-03-30T16:52:19.929Z,34.31
2023-03-30T16:54:48.383Z,34.40
2023-03-30T16:57:16.518Z,34.68
2023-03-30T16:59:44.390Z,34.55
2023-03-30T17:02:15.899Z,34.42
2023-03-30T17:04:45.789Z,34.74
2023-03-30T17:07:13.721Z,35.60
2023-03-30T17:09:41.625Z,35.14
2023-03-30T17:12:09.541Z,34.63
2023-03-30T17:14:37.660Z,34.62
2023-03-30T17:17:07.298Z,34.16
2023-03-30T17:19:35.393Z,34.26
2023-03-30T17:22:03.219Z,33.67
2023-03-30T17:24:31.096Z,33.43
2023-03-30T17:27:00.143Z,33.52
2023-03-30T17:29:27.942Z,33.20
2023-03-30T17:31:56.215Z,33.70
2023-03-30T17:34:24.014Z,33.57
2023-03-30T17:36:53.612Z,33.61
2023-03-30T17:39:21.733Z,33.19
2023-03-30T17:41:49.767Z,33.64
2023-03-30T17:44:17.547Z,33.67
2023-03-30T17:46:46.511Z,33.80
2023-03-30T17:49:14.376Z,33.79
2023-03-30T17:51:42.156Z,33.99
2023-03-30T17:54:10.028Z,33.99
2023-03-30T17:56:37.771Z,34.17
2023-03-30T17:59:05.893Z,34.28
2023-03-30T18:01:36.095Z,34.07
2023-03-30T18:04:04.347Z,34.39
2023-03-30T18:06:32.659Z,34.31
2023-03-30T18:09:00.694Z,34.68
2023-03-30T18:11:28.469Z,34.39
2023-03-30T18:13:56.422Z,34.76
2023-03-30T18:16:24.859Z,34.59
2023-03-30T18:18:52.769Z,34.80
2023-03-30T18:21:21.022Z,34.71
2023-03-30T18:23:48.786Z,34.79
2023-03-30T18:26:16.905Z,34.85
2023-03-30T18:28:46.532Z,34.93
2023-03-30T18:31:16.891Z,35.01
2023-03-30T18:33:45.201Z,35.03
2023-03-30T18:36:13.487Z,35.38
2023-03-30T18:38:41.523Z,35.37
2023-03-30T18:41:09.421Z,35.28
2023-03-30T18:43:37.194Z,35.44
2023-03-30T18:46:05.877Z,35.75
2023-03-30T18:48:33.809Z,35.81
2023-03-30T18:51:01.763Z,35.69
2023-03-30T18:53:29.562Z,35.70
2023-03-30T18:56:00.384Z,35.60
2023-03-30T18:58:28.652Z,34.93
2023-03-30T19:00:56.563Z,34.50
2023-03-30T19:03:24.623Z,34.54
2023-03-30T19:05:52.565Z,34.51
2023-03-30T19:08:20.654Z,34.34
2023-03-30T19:10:48.494Z,34.42
2023-03-30T19:13:16.639Z,34.60
2023-03-30T19:15:44.410Z,34.63
2023-03-30T19:18:12.270Z,34.56
2023-03-30T19:20:41.445Z,34.95
2023-03-30T19:23:09.282Z,34.69
2023-03-30T19:25:37.400Z,34.66
2023-03-30T19:28:05.799Z,35.01
2023-03-30T19:30:34.920Z,34.92
2023-03-30T19:33:04.716Z,34.92
2023-03-30T19:35:32.647Z,35.40
2023-03-30T19:38:00.680Z,35.30
2023-03-30T19:40:28.535Z,34.97
2023-03-30T19:42:56.312Z,34.97
2023-03-30T19:45:24.445Z,35.32
2023-03-30T19:47:52.274Z,35.07
2023-03-30T19:50:20.184Z,35.27
2023-03-30T19:52:50.189Z,35.28
2023-03-30T19:55:18.258Z,35.05
2023-03-30T19:57:46.206Z,35.38
2023-03-30T20:00:15.433Z,35.18
2023-03-30T20:02:43.867Z,35.24
2023-03-30T20:05:13.013Z,35.27
2023-03-30T20:07:41.003Z,34.84
2023-03-30T20:10:08.899Z,35.39
2023-03-30T20:12:36.831Z,35.50
2023-03-30T20:15:06.084Z,35.30
2023-03-30T20:17:34.251Z,35.33
2023-03-30T20:20:08.532Z,35.56
2023-03-30T20:22:36.531Z,35.33
2023-03-30T20:25:04.937Z,35.27
2023-03-30T20:27:33.938Z,35.21
2023-03-30T20:30:03.046Z,35.40
2023-03-30T20:32:31.092Z,35.68
2023-03-30T20:34:58.938Z,35.54
2023-03-30T20:37:26.731Z,35.34
2023-03-30T20:40:03.588Z,35.61
2023-03-30T20:42:34.266Z,35.55
2023-03-30T20:45:02.166Z,35.66
2023-03-30T20:47:31.454Z,35.75
2023-03-30T20:49:59.472Z,35.79
2023-03-30T20:52:27.424Z,35.51
2023-03-30T20:54:56.351Z,35.68
2023-03-30T20:57:24.433Z,35.76
2023-03-30T20:59:53.468Z,35.85
2023-03-30T21:02:21.554Z,35.90
2023-03-30T21:04:50.730Z,36.17
2023-03-30T21:07:18.643Z,35.71
2023-03-30T21:09:47.530Z,35.62
2023-03-30T21:12:15.505Z,35.52
2023-03-30T21:14:45.875Z,35.55
2023-03-30T21:17:13.779Z,35.73
2023-03-30T21:19:41.669Z,35.84
2023-03-30T21:22:09.481Z,35.73
2023-03-30T21:24:37.416Z,35.82
2023-03-30T21:27:05.458Z,35.79
2023-03-30T21:29:33.502Z,35.86
2023-03-30T21:32:01.508Z,35.93
2023-03-30T21:34:29.486Z,35.65
2023-03-30T21:36:57.520Z,35.70
2023-03-30T21:39:25.499Z,35.47
2023-03-30T21:41:53.392Z,35.75
2023-03-30T21:44:21.518Z,35.52
2023-03-30T21:46:49.383Z,35.78
2023-03-30T21:49:17.299Z,35.68
2023-03-30T21:51:45.241Z,35.56
2023-03-30T21:54:14.112Z,35.93
2023-03-30T21:56:42.180Z,35.53
2023-03-30T21:59:09.961Z,35.65
2023-03-30T22:01:38.823Z,35.86
2023-03-30T22:04:06.771Z,35.54
2023-03-30T22:06:34.999Z,35.43
2023-03-30T22:09:02.850Z,35.93
2023-03-30T22:11:30.692Z,35.79
2023-03-30T22:13:58.769Z,35.91
2023-03-30T22:16:28.355Z,35.52
2023-03-30T22:18:56.400Z,35.76
2023-03-30T22:21:24.845Z,35.86
2023-03-30T22:23:52.672Z,35.76
2023-03-30T22:26:20.960Z,35.85
2023-03-30T22:28:48.738Z,35.71
2023-03-30T22:31:17.043Z,35.61
2023-03-30T22:33:45.063Z,35.78
2023-03-30T22:36:14.962Z,35.68
2023-03-30T22:38:43.043Z,35.89
2023-03-30T22:41:11.585Z,35.92
2023-03-30T22:43:39.386Z,35.65
2023-03-30T22:46:07.365Z,35.79
2023-03-30T22:48:35.691Z,35.86
2023-03-30T22:51:03.653Z,35.87
2023-03-30T22:53:31.650Z,35.66
2023-03-30T22:55:59.517Z,35.55
2023-03-30T22:58:27.472Z,35.56
2023-03-30T23:00:56.587Z,36.08
2023-03-30T23:03:24.455Z,35.82
2023-03-30T23:05:52.667Z,35.40
2023-03-30T23:08:20.490Z,35.50
2023-03-30T23:10:48.348Z,35.77
2023-03-30T23:13:16.144Z,35.56
2023-03-30T23:15:44.036Z,35.69
2023-03-30T23:18:12.249Z,35.51
2023-03-30T23:20:40.008Z,35.65
2023-03-30T23:23:08.448Z,35.86
2023-03-30T23:25:38.019Z,35.54
2023-03-30T23:28:06.010Z,35.98
2023-03-30T23:30:33.814Z,35.76
2023-03-30T23:33:01.883Z,35.59
2023-03-30T23:35:29.783Z,35.90
2023-03-30T23:37:57.548Z,35.68
2023-03-30T23:40:25.495Z,35.83
2023-03-30T23:42:53.334Z,36.03
2023-03-30T23:45:21.322Z,35.62
2023-03-30T23:47:49.216Z,35.81
2023-03-30T23:50:17.233Z,35.96
2023-03-30T23:52:45.087Z,35.46
2023-03-30T23:55:13.203Z,35.84
2023-03-30T23:57:41.148Z,35.70
